createdAt,value
2023-03-02T00:02:40.802Z,3.59
2023-03-02T00:13:02.700Z,3.55
2023-03-02T00:23:24.130Z,3.47
2023-03-02T00:33:45.498Z,3.51
2023-03-02T00:44:07.088Z,3.44
2023-03-02T00:54:28.445Z,3.46
2023-03-02T01:04:49.898Z,3.40
2023-03-02T01:15:11.403Z,3.28
2023-03-02T01:25:32.743Z,3.31
2023-03-02T01:35:54.225Z,3.23
2023-03-02T01:46:23.530Z,3.21
2023-03-02T01:56:46.073Z,3.15
2023-03-02T02:07:08.524Z,3.15
2023-03-02T02:17:30.127Z,3.14
2023-03-02T02:27:51.717Z,3.16
2023-03-02T02:38:14.030Z,3.19
2023-03-02T02:48:35.485Z,3.10
2023-03-02T02:59:00.627Z,2.96
2023-03-02T03:09:22.488Z,2.74
2023-03-02T03:19:45.558Z,2.65
2023-03-02T03:30:07.191Z,2.58
2023-03-02T03:40:29.029Z,2.51
2023-03-02T03:50:50.458Z,2.43
2023-03-02T04:01:11.848Z,2.37
2023-03-02T04:11:34.138Z,2.40
2023-03-02T04:21:55.943Z,2.33
2023-03-02T04:32:17.385Z,2.19
2023-03-02T04:42:38.763Z,2.01
2023-03-02T04:53:00.339Z,1.97
2023-03-02T05:03:21.689Z,1.87
2023-03-02T05:13:43.100Z,1.76
2023-03-02T05:24:04.623Z,1.69
2023-03-02T05:34:25.993Z,1.72
2023-03-02T05:44:47.339Z,1.61
2023-03-02T05:55:08.816Z,1.49
2023-03-02T06:05:30.162Z,1.46
2023-03-02T06:15:51.513Z,1.48
2023-03-02T06:26:13.116Z,1.44
2023-03-02T06:36:35.033Z,1.48
2023-03-02T06:46:56.626Z,1.42
2023-03-02T06:57:17.979Z,1.49
2023-03-02T07:07:39.415Z,1.38
2023-03-02T07:18:00.822Z,1.37
2023-03-02T07:28:24.152Z,1.35
2023-03-02T07:38:45.526Z,1.42
2023-03-02T07:49:06.901Z,1.54
2023-03-02T07:59:28.950Z,1.51
2023-03-02T08:09:50.489Z,1.38
2023-03-02T08:20:12.286Z,1.43
2023-03-02T08:30:33.732Z,1.56
2023-03-02T08:40:55.122Z,1.62
2023-03-02T08:51:18.023Z,1.64
2023-03-02T09:01:39.728Z,1.63
2023-03-02T09:12:01.310Z,1.70
2023-03-02T09:22:22.665Z,1.91
2023-03-02T09:32:44.260Z,1.96
2023-03-02T09:43:24.593Z,2.02
2023-03-02T09:53:45.996Z,2.01
2023-03-02T10:04:27.631Z,2.17
2023-03-02T10:14:53.160Z,2.16
2023-03-02T10:25:20.653Z,2.41
2023-03-02T10:35:47.175Z,2.54
2023-03-02T10:46:10.201Z,2.52
2023-03-02T10:56:32.682Z,2.55
2023-03-02T11:06:54.541Z,2.84
2023-03-02T11:17:30.424Z,3.00
2023-03-02T11:27:56.774Z,3.14
2023-03-02T11:38:21.321Z,3.08
2023-03-02T11:48:44.915Z,3.24
2023-03-02T11:59:11.342Z,3.41
2023-03-02T12:09:35.082Z,3.46
2023-03-02T12:20:08.563Z,3.58
2023-03-02T12:30:31.526Z,3.76
2023-03-02T12:41:12.840Z,3.78
2023-03-02T12:51:53.905Z,3.99
2023-03-02T13:02:15.397Z,4.09
2023-03-02T13:12:37.161Z,4.22
2023-03-02T13:22:58.566Z,4.27
2023-03-02T13:33:22.389Z,4.45
2023-03-02T13:43:43.821Z,4.59
2023-03-02T13:54:11.247Z,4.61
2023-03-02T14:04:32.725Z,4.73
2023-03-02T14:14:55.886Z,4.80
2023-03-02T14:25:17.731Z,4.80
2023-03-02T14:35:39.148Z,4.88
2023-03-02T14:46:00.593Z,4.83
2023-03-02T14:56:25.811Z,4.83
2023-03-02T15:06:47.457Z,4.84
2023-03-02T15:17:10.121Z,4.87
2023-03-02T15:27:31.486Z,4.75
2023-03-02T15:37:53.266Z,4.82
2023-03-02T15:48:14.735Z,4.78
2023-03-02T15:58:36.443Z,4.77
2023-03-02T16:08:57.971Z,4.63
2023-03-02T16:19:19.539Z,4.61
2023-03-02T16:29:40.959Z,4.58
2023-03-02T16:40:02.330Z,4.54
2023-03-02T16:50:23.676Z,4.40
2023-03-02T17:00:45.133Z,4.34
2023-03-02T17:11:06.678Z,4.20
2023-03-02T17:21:28.096Z,4.15
2023-03-02T17:31:49.451Z,4.03
2023-03-02T17:42:10.863Z,4.04
2023-03-02T17:52:32.367Z,4.08
2023-03-02T18:02:53.854Z,4.02
2023-03-02T18:13:15.341Z,3.83
2023-03-02T18:23:36.708Z,3.84
2023-03-02T18:33:58.939Z,3.89
2023-03-02T18:44:20.752Z,3.94
2023-03-02T18:54:46.355Z,4.01
2023-03-02T19:05:07.913Z,4.04
2023-03-02T19:15:31.421Z,3.97
2023-03-02T19:25:53.244Z,3.98
2023-03-02T19:36:14.713Z,3.99
2023-03-02T19:46:36.072Z,3.96
2023-03-02T19:56:57.450Z,3.96
2023-03-02T20:07:19.397Z,3.97
2023-03-02T20:17:40.780Z,3.95
2023-03-02T20:28:05.499Z,3.93
2023-03-02T20:38:30.399Z,3.92
2023-03-02T20:48:51.909Z,3.87
2023-03-02T20:59:14.363Z,3.89
2023-03-02T21:09:36.566Z,3.92
2023-03-02T21:19:58.219Z,3.93
2023-03-02T21:30:27.929Z,3.96
2023-03-02T21:40:49.266Z,3.97
2023-03-02T21:51:11.373Z,3.94
2023-03-02T22:01:32.921Z,3.94
2023-03-02T22:11:54.543Z,3.97
2023-03-02T22:22:18.149Z,3.94
2023-03-02T22:32:39.611Z,3.93
2023-03-02T22:43:20.328Z,3.90
2023-03-02T22:53:48.718Z,3.93
2023-03-02T23:04:11.888Z,3.87
2023-03-02T23:14:41.720Z,3.88
2023-03-02T23:25:03.614Z,3.90
2023-03-02T23:35:25.041Z,3.83
2023-03-02T23:45:47.184Z,3.81
2023-03-02T23:56:08.742Z,3.79
